• Join FlightAware (Why Join?)
  • Login
  • US Flag 
12:52PM EDT


 

Airport Tracker/Info


-or-


 

Live Flight TrackerFlight Track Log ✈ EJA831 ✈ 02-Oct-2013 ✈ KMDW - CYYZ

Flight Track Log - Related Links

Times and Time Zones

All times are in EDT time to prevent confusion due to time zone crossing. See the EJA831 flight status page for this flight to view local times or setup timezone preferences in your user account.

Time Position Orientation Groundspeed Altitude Reporting Facility
EDT Latitude Longitude Course Direction KTS MPH feet Rate Location/Type
11:54AM 41.8000 -87.6833 80° East 238 274 3,300  Level Chicago TRACON
11:55AM 41.8067 -87.5778 85° East 264 304 5,000 1,380 Climbing Chicago Center
11:57AM 41.8064 -87.4747 90° East 272 313 6,300 2,220 Climbing Chicago Center
11:58AM 41.7928 -87.3678 100° East 288 331 9,700 2,700 Climbing Chicago Center
11:59AM 41.7817 -87.2519 97° East 306 352 12,000 2,280 Climbing Chicago Center
12:00PM 41.9792 -87.0426 80° East  Level Estimated
12:00PM 41.7692 -87.1292 98° East 327 376 14,500  Level Chicago Center
12:01PM 41.7628 -86.9719 93° East 353 406 17,700 2,640 Climbing Chicago Center
12:02PM 41.7642 -86.8372 89° East 362 417 20,000 2,280 Climbing Chicago Center
12:03PM 41.7656 -86.6958 89° East 372 428 22,400 2,100 Climbing Chicago Center
12:04PM 41.7667 -86.5522 89° East 385 443 24,400 1,920 Climbing Chicago Center
12:05PM 41.7989 -86.4114 73° East 395 455 26,400 1,860 Climbing Chicago Center
12:06PM 41.8303 -86.2675 74° East 401 461 28,300 1,620 Climbing Chicago Center
12:07PM 41.8653 -86.1214 72° East 409 471 29,800 1,500 Climbing Chicago Center
12:08PM 41.9000 -85.9694 73° East 424 488 31,400 1,680 Climbing Chicago Center
12:09PM 41.9414 -85.7842 73° East 430 495 33,300 1,740 Climbing Chicago Center
12:10PM 41.9769 -85.6303 73° East 430 495 35,100 1,620 Climbing Chicago Center
12:11PM 42.0067 -85.4936 74° East 426 490 36,700 1,320 Climbing Chicago Center
12:12PM 42.0456 -85.3131 74° East 425 489 37,900 600 Climbing Chicago Center
12:13PM 42.0811 -85.1519 73° East 449 517 38,000  Climbing Chicago Center
12:14PM 42.1169 -84.9867 74° East 459 528 38,000  Level Chicago Center
12:15PM 42.1514 -84.8269 74° East 450 518 38,000  Level Chicago Center
12:16PM 42.1847 -84.6725 74° East 436 502 38,000  Level Chicago Center
12:17PM 42.2178 -84.5167 74° East 433 498 38,000  Level Chicago Center
12:18PM 42.2575 -84.3303 74° East 432 497 38,000  Level Chicago Center
12:19PM 42.2789 -84.2253 75° East 431 496 38,000  Level Cleveland Center
12:20PM 42.3111 -84.0692 74° East 430 495 38,000  Level Cleveland Center
12:21PM 42.3428 -83.9111 75° East 433 498 38,000  Level Cleveland Center
12:22PM 42.3822 -83.7222 74° East 434 499 38,000 -900 Level Cleveland Center
12:23PM 42.4167 -83.5611 74° East 448 516 36,200 -1,800 Descending Cleveland Center
12:24PM 42.4639 -83.3886 70° East 463 533 34,300 -1,800 Descending Cleveland Center
12:25PM 42.5072 -83.2247 70° East 458 527 32,500 -1,800 Descending Cleveland Center
12:26PM 42.5486 -83.0647 71° East 450 518 30,700 -1,740 Descending Cleveland Center
12:27PM 42.5936 -82.8961 70° East 468 539 29,000 -840 Descending Cleveland Center
12:28PM 42.6361 -82.7303 71° East 469 540 29,000  Level Cleveland Center
12:29PM 42.6797 -82.5667 70° East 464 534 29,000  Level Cleveland Center
12:30PM 42.7308 -82.3678 71° East 464 534 29,000  Level Cleveland Center
12:31PM 42.7725 -82.2039 71° East 462 532 29,000  Level Cleveland Center
12:32PM 42.8150 -82.0400 70° East 460 529 29,000  Level Cleveland Center
12:33PM 42.8572 -81.8736 71° East 466 536 29,000  Level Cleveland Center
12:34PM 42.8833 -81.7500 74° East 460 529 29,000 -420 Level Toronto Center
12:35PM 42.9167 -81.5833 75° East 460 529 28,400 -1,260 Descending Toronto Center
12:36PM 42.9500 -81.4167 75° East 480 552 26,500 -1,740 Descending Toronto Center
12:37PM 43.0000 -81.2500 68° East 470 541 25,000 -1,200 Descending Toronto Center
12:38PM 43.0500 -81.1000 65° Northeast 450 518 24,100 -900 Descending Toronto Center
12:39PM 43.1167 -80.9500 59° Northeast 450 518 23,200 -900 Descending Toronto Center
12:40PM 43.1833 -80.8167 56° Northeast 430 495 22,300 -900 Descending Toronto Center
12:41PM 43.2833 -80.6833 44° Northeast 430 495 21,400 -900 Descending Toronto Center
12:42PM 43.3500 -80.5667 52° Northeast 420 483 20,500 -1,200 Descending Toronto Center
12:43PM 43.4167 -80.4333 55° Northeast 420 483 19,100 -1,740 Descending Toronto Center
12:44PM 43.4667 -80.3000 63° Northeast 410 472 17,100 -2,100 Descending Toronto Center
12:45PM 43.5000 -80.1667 71° East 380 437 14,900 -1,860 Descending Toronto Center
12:46PM 43.5333 -80.0500 68° East 350 403 13,400 -1,800 Descending Toronto Center
12:47PM 43.5833 -79.9333 59° Northeast 340 391 11,400 -1,980 Descending Toronto Center
12:48PM 43.6333 -79.8667 44° Northeast 310 357 9,500 -1,200 Descending Toronto Center
12:49PM 43.7000 -79.7667 47° Northeast 300 345 9,000 -1,200 Descending Toronto Center
12:50PM 43.7500 -79.7000 44° Northeast 280 322 7,100 -2,280 Descending Toronto Center
12:51PM 43.8000 -79.6333 44° Northeast 240 276 4,500 -2,100 Descending Toronto Center
12:52PM 43.8167 -79.5667 71° East 210 242 3,000 -780 Descending Toronto Center
12:53PM 43.8000 -79.5167 115° Southeast 190 219 3,000 -180 Level Toronto Center
12:54PM 43.7500 -79.5167 180° South 170 196 2,700 -660 Descending Toronto Center
12:55PM 43.7167 -79.5667 227° Southwest 150 173 1,700 -900 Descending Toronto Center
12:56PM 43.7000 -79.5833 216° Southwest 120 138 1,000 -600 Descending Toronto Center
12:57PM 43.6833 -79.6333 245° Southwest 110 127 500 -540 Descending Toronto Center